sensor_id;sensor_type;location;lat;lon;timestamp;P1;durP1;ratioP1;P2;durP2;ratioP2
19554;SDS011;9924;50.828;6.440;2023-04-24T00:00:42;2.58;;;1.00;;
19554;SDS011;9924;50.828;6.440;2023-04-24T00:03:31;3.38;;;1.23;;
19554;SDS011;9924;50.828;6.440;2023-04-24T00:06:16;2.30;;;1.05;;
19554;SDS011;9924;50.828;6.440;2023-04-24T00:09:01;4.93;;;1.48;;
19554;SDS011;9924;50.828;6.440;2023-04-24T00:11:47;2.25;;;1.20;;
19554;SDS011;9924;50.828;6.440;2023-04-24T00:14:33;1.95;;;1.05;;
19554;SDS011;9924;50.828;6.440;2023-04-24T00:17:18;1.17;;;1.00;;
19554;SDS011;9924;50.828;6.440;2023-04-24T00:20:06;1.50;;;1.27;;
19554;SDS011;9924;50.828;6.440;2023-04-24T00:22:51;1.35;;;1.00;;
19554;SDS011;9924;50.828;6.440;2023-04-24T00:25:36;1.48;;;1.38;;
19554;SDS011;9924;50.828;6.440;2023-04-24T00:28:22;4.75;;;1.77;;
19554;SDS011;9924;50.828;6.440;2023-04-24T00:31:06;1.75;;;1.23;;
19554;SDS011;9924;50.828;6.440;2023-04-24T00:33:50;1.38;;;1.23;;
19554;SDS011;9924;50.828;6.440;2023-04-24T00:36:35;2.13;;;1.30;;
19554;SDS011;9924;50.828;6.440;2023-04-24T00:39:19;2.42;;;1.58;;
19554;SDS011;9924;50.828;6.440;2023-04-24T00:42:04;1.80;;;1.63;;
19554;SDS011;9924;50.828;6.440;2023-04-24T00:44:50;4.97;;;2.60;;
19554;SDS011;9924;50.828;6.440;2023-04-24T00:47:36;4.22;;;2.80;;
19554;SDS011;9924;50.828;6.440;2023-04-24T00:50:22;4.10;;;3.00;;
19554;SDS011;9924;50.828;6.440;2023-04-24T00:53:08;3.40;;;2.78;;
19554;SDS011;9924;50.828;6.440;2023-04-24T00:55:52;3.95;;;2.90;;
19554;SDS011;9924;50.828;6.440;2023-04-24T00:58:41;3.80;;;3.22;;
19554;SDS011;9924;50.828;6.440;2023-04-24T01:01:26;5.60;;;3.47;;
19554;SDS011;9924;50.828;6.440;2023-04-24T01:04:11;7.30;;;3.42;;
19554;SDS011;9924;50.828;6.440;2023-04-24T01:06:56;6.28;;;4.13;;
19554;SDS011;9924;50.828;6.440;2023-04-24T01:09:41;8.18;;;3.58;;
19554;SDS011;9924;50.828;6.440;2023-04-24T01:12:26;8.05;;;4.20;;
19554;SDS011;9924;50.828;6.440;2023-04-24T01:15:11;7.28;;;3.47;;
19554;SDS011;9924;50.828;6.440;2023-04-24T01:17:55;6.97;;;4.15;;
19554;SDS011;9924;50.828;6.440;2023-04-24T01:20:41;6.55;;;4.55;;
19554;SDS011;9924;50.828;6.440;2023-04-24T01:23:28;9.90;;;5.45;;
19554;SDS011;9924;50.828;6.440;2023-04-24T01:26:13;9.27;;;5.32;;
19554;SDS011;9924;50.828;6.440;2023-04-24T01:28:59;10.00;;;5.07;;
19554;SDS011;9924;50.828;6.440;2023-04-24T01:31:44;11.30;;;5.88;;
19554;SDS011;9924;50.828;6.440;2023-04-24T01:34:31;14.40;;;5.95;;
19554;SDS011;9924;50.828;6.440;2023-04-24T01:37:16;9.05;;;6.10;;
19554;SDS011;9924;50.828;6.440;2023-04-24T01:40:01;10.73;;;6.20;;
19554;SDS011;9924;50.828;6.440;2023-04-24T01:42:47;10.93;;;5.97;;
19554;SDS011;9924;50.828;6.440;2023-04-24T01:45:32;8.95;;;5.82;;
19554;SDS011;9924;50.828;6.440;2023-04-24T01:48:16;9.98;;;5.78;;
19554;SDS011;9924;50.828;6.440;2023-04-24T01:51:01;10.63;;;5.63;;
19554;SDS011;9924;50.828;6.440;2023-04-24T01:53:47;12.13;;;5.22;;
19554;SDS011;9924;50.828;6.440;2023-04-24T01:56:33;8.25;;;5.68;;
19554;SDS011;9924;50.828;6.440;2023-04-24T01:59:21;7.82;;;5.30;;
19554;SDS011;9924;50.828;6.440;2023-04-24T02:02:08;12.00;;;5.75;;
19554;SDS011;9924;50.828;6.440;2023-04-24T02:04:53;8.45;;;5.45;;
19554;SDS011;9924;50.828;6.440;2023-04-24T02:07:39;12.05;;;6.50;;
19554;SDS011;9924;50.828;6.440;2023-04-24T02:10:25;8.27;;;5.57;;
19554;SDS011;9924;50.828;6.440;2023-04-24T02:13:09;11.20;;;5.72;;
19554;SDS011;9924;50.828;6.440;2023-04-24T02:15:54;14.13;;;6.13;;
19554;SDS011;9924;50.828;6.440;2023-04-24T02:18:39;9.80;;;6.22;;
19554;SDS011;9924;50.828;6.440;2023-04-24T02:21:23;12.40;;;6.68;;
19554;SDS011;9924;50.828;6.440;2023-04-24T02:24:07;12.77;;;6.70;;
19554;SDS011;9924;50.828;6.440;2023-04-24T02:26:53;15.85;;;6.47;;
19554;SDS011;9924;50.828;6.440;2023-04-24T02:29:38;11.23;;;6.97;;
19554;SDS011;9924;50.828;6.440;2023-04-24T02:32:22;12.00;;;7.97;;
19554;SDS011;9924;50.828;6.440;2023-04-24T02:35:07;10.40;;;6.35;;
19554;SDS011;9924;50.828;6.440;2023-04-24T02:37:51;12.98;;;6.93;;
19554;SDS011;9924;50.828;6.440;2023-04-24T02:40:36;12.18;;;7.10;;
19554;SDS011;9924;50.828;6.440;2023-04-24T02:43:20;10.75;;;6.80;;
19554;SDS011;9924;50.828;6.440;2023-04-24T02:46:10;16.23;;;6.50;;
19554;SDS011;9924;50.828;6.440;2023-04-24T02:48:55;13.13;;;7.32;;
19554;SDS011;9924;50.828;6.440;2023-04-24T02:51:39;10.23;;;7.15;;
19554;SDS011;9924;50.828;6.440;2023-04-24T02:54:45;16.25;;;8.23;;
19554;SDS011;9924;50.828;6.440;2023-04-24T02:57:29;9.85;;;6.78;;
19554;SDS011;9924;50.828;6.440;2023-04-24T03:00:16;13.65;;;7.45;;
19554;SDS011;9924;50.828;6.440;2023-04-24T03:03:00;11.82;;;7.40;;
19554;SDS011;9924;50.828;6.440;2023-04-24T03:05:46;13.05;;;6.80;;
19554;SDS011;9924;50.828;6.440;2023-04-24T03:08:31;13.50;;;6.75;;
19554;SDS011;9924;50.828;6.440;2023-04-24T03:11:16;11.45;;;7.28;;
19554;SDS011;9924;50.828;6.440;2023-04-24T03:14:01;10.30;;;6.28;;
19554;SDS011;9924;50.828;6.440;2023-04-24T03:16:45;10.25;;;6.28;;
19554;SDS011;9924;50.828;6.440;2023-04-24T03:19:31;12.68;;;6.50;;
19554;SDS011;9924;50.828;6.440;2023-04-24T03:22:16;11.45;;;6.18;;
19554;SDS011;9924;50.828;6.440;2023-04-24T03:25:01;15.32;;;6.30;;
19554;SDS011;9924;50.828;6.440;2023-04-24T03:27:46;10.48;;;6.32;;
19554;SDS011;9924;50.828;6.440;2023-04-24T03:30:30;13.02;;;6.95;;
19554;SDS011;9924;50.828;6.440;2023-04-24T03:33:14;11.75;;;6.70;;
19554;SDS011;9924;50.828;6.440;2023-04-24T03:35:59;13.23;;;6.65;;
19554;SDS011;9924;50.828;6.440;2023-04-24T03:38:43;14.18;;;8.38;;
19554;SDS011;9924;50.828;6.440;2023-04-24T03:41:28;11.77;;;6.97;;
19554;SDS011;9924;50.828;6.440;2023-04-24T03:44:14;11.02;;;6.60;;
19554;SDS011;9924;50.828;6.440;2023-04-24T03:46:58;11.30;;;6.88;;
19554;SDS011;9924;50.828;6.440;2023-04-24T03:49:44;11.38;;;6.78;;
19554;SDS011;9924;50.828;6.440;2023-04-24T03:52:28;7.50;;;5.53;;
19554;SDS011;9924;50.828;6.440;2023-04-24T03:55:12;9.75;;;6.05;;
19554;SDS011;9924;50.828;6.440;2023-04-24T03:57:58;11.02;;;5.53;;
19554;SDS011;9924;50.828;6.440;2023-04-24T04:00:42;11.48;;;5.38;;
19554;SDS011;9924;50.828;6.440;2023-04-24T04:03:28;7.15;;;5.28;;
19554;SDS011;9924;50.828;6.440;2023-04-24T04:06:12;10.95;;;6.30;;
19554;SDS011;9924;50.828;6.440;2023-04-24T04:08:56;8.57;;;5.55;;
19554;SDS011;9924;50.828;6.440;2023-04-24T04:11:41;9.02;;;5.53;;
19554;SDS011;9924;50.828;6.440;2023-04-24T04:14:27;9.57;;;5.60;;
19554;SDS011;9924;50.828;6.440;2023-04-24T04:17:13;9.60;;;5.85;;
19554;SDS011;9924;50.828;6.440;2023-04-24T04:19:57;8.25;;;5.80;;
19554;SDS011;9924;50.828;6.440;2023-04-24T04:22:42;9.18;;;5.15;;
19554;SDS011;9924;50.828;6.440;2023-04-24T04:25:27;8.88;;;5.43;;
19554;SDS011;9924;50.828;6.440;2023-04-24T04:28:14;8.00;;;5.20;;
19554;SDS011;9924;50.828;6.440;2023-04-24T04:30:59;8.80;;;5.57;;
19554;SDS011;9924;50.828;6.440;2023-04-24T04:33:43;8.95;;;6.18;;
19554;SDS011;9924;50.828;6.440;2023-04-24T04:36:27;9.82;;;6.25;;
19554;SDS011;9924;50.828;6.440;2023-04-24T04:39:13;8.70;;;5.68;;
19554;SDS011;9924;50.828;6.440;2023-04-24T04:41:58;7.45;;;5.30;;
19554;SDS011;9924;50.828;6.440;2023-04-24T04:44:44;8.55;;;6.45;;
19554;SDS011;9924;50.828;6.440;2023-04-24T04:47:29;11.45;;;5.70;;
19554;SDS011;9924;50.828;6.440;2023-04-24T04:50:15;10.93;;;6.05;;
19554;SDS011;9924;50.828;6.440;2023-04-24T04:53:03;12.05;;;6.40;;
19554;SDS011;9924;50.828;6.440;2023-04-24T04:55:48;11.40;;;6.60;;
19554;SDS011;9924;50.828;6.440;2023-04-24T04:58:33;12.32;;;6.75;;
19554;SDS011;9924;50.828;6.440;2023-04-24T05:01:18;10.95;;;5.97;;
19554;SDS011;9924;50.828;6.440;2023-04-24T05:04:03;9.40;;;6.72;;
19554;SDS011;9924;50.828;6.440;2023-04-24T05:06:48;11.50;;;6.68;;
19554;SDS011;9924;50.828;6.440;2023-04-24T05:09:34;10.10;;;6.53;;
19554;SDS011;9924;50.828;6.440;2023-04-24T05:12:19;9.32;;;5.95;;
19554;SDS011;9924;50.828;6.440;2023-04-24T05:15:03;11.60;;;6.50;;
19554;SDS011;9924;50.828;6.440;2023-04-24T05:17:49;9.90;;;5.95;;
19554;SDS011;9924;50.828;6.440;2023-04-24T05:20:34;15.25;;;6.28;;
19554;SDS011;9924;50.828;6.440;2023-04-24T05:23:18;8.25;;;5.35;;
19554;SDS011;9924;50.828;6.440;2023-04-24T05:26:03;10.75;;;6.53;;
19554;SDS011;9924;50.828;6.440;2023-04-24T05:28:48;9.20;;;5.70;;
19554;SDS011;9924;50.828;6.440;2023-04-24T05:31:32;7.90;;;5.05;;
19554;SDS011;9924;50.828;6.440;2023-04-24T05:34:17;8.57;;;5.82;;
19554;SDS011;9924;50.828;6.440;2023-04-24T05:37:01;8.93;;;4.55;;
19554;SDS011;9924;50.828;6.440;2023-04-24T05:39:46;8.98;;;4.75;;
19554;SDS011;9924;50.828;6.440;2023-04-24T05:42:52;6.75;;;4.03;;
19554;SDS011;9924;50.828;6.440;2023-04-24T05:45:41;6.47;;;3.95;;
19554;SDS011;9924;50.828;6.440;2023-04-24T05:48:31;5.45;;;3.95;;
19554;SDS011;9924;50.828;6.440;2023-04-24T05:51:18;6.00;;;3.35;;
19554;SDS011;9924;50.828;6.440;2023-04-24T05:54:02;5.82;;;3.67;;
19554;SDS011;9924;50.828;6.440;2023-04-24T05:56:49;3.88;;;2.70;;
19554;SDS011;9924;50.828;6.440;2023-04-24T05:59:36;5.03;;;2.72;;
19554;SDS011;9924;50.828;6.440;2023-04-24T06:02:22;4.75;;;2.85;;
19554;SDS011;9924;50.828;6.440;2023-04-24T06:05:06;4.03;;;2.92;;
19554;SDS011;9924;50.828;6.440;2023-04-24T06:07:52;4.25;;;3.30;;
19554;SDS011;9924;50.828;6.440;2023-04-24T06:10:38;4.22;;;2.60;;
19554;SDS011;9924;50.828;6.440;2023-04-24T06:13:24;7.70;;;3.40;;
19554;SDS011;9924;50.828;6.440;2023-04-24T06:16:09;6.38;;;3.50;;
19554;SDS011;9924;50.828;6.440;2023-04-24T06:18:54;4.85;;;3.75;;
19554;SDS011;9924;50.828;6.440;2023-04-24T06:21:38;4.68;;;3.40;;
19554;SDS011;9924;50.828;6.440;2023-04-24T06:24:27;5.78;;;4.00;;
19554;SDS011;9924;50.828;6.440;2023-04-24T06:27:13;6.10;;;4.47;;
19554;SDS011;9924;50.828;6.440;2023-04-24T06:29:58;8.00;;;4.07;;
19554;SDS011;9924;50.828;6.440;2023-04-24T06:32:43;5.63;;;3.83;;
19554;SDS011;9924;50.828;6.440;2023-04-24T06:35:28;5.97;;;4.05;;
19554;SDS011;9924;50.828;6.440;2023-04-24T06:38:13;6.45;;;3.85;;
19554;SDS011;9924;50.828;6.440;2023-04-24T06:40:57;5.53;;;3.30;;
19554;SDS011;9924;50.828;6.440;2023-04-24T06:43:42;4.88;;;3.63;;
19554;SDS011;9924;50.828;6.440;2023-04-24T06:46:30;6.57;;;3.67;;
19554;SDS011;9924;50.828;6.440;2023-04-24T06:49:14;5.90;;;3.90;;
19554;SDS011;9924;50.828;6.440;2023-04-24T06:51:59;4.85;;;3.63;;
19554;SDS011;9924;50.828;6.440;2023-04-24T06:54:44;4.63;;;3.38;;
19554;SDS011;9924;50.828;6.440;2023-04-24T06:57:29;5.45;;;3.40;;
19554;SDS011;9924;50.828;6.440;2023-04-24T07:00:15;4.03;;;2.83;;
19554;SDS011;9924;50.828;6.440;2023-04-24T07:03:00;5.15;;;3.75;;
19554;SDS011;9924;50.828;6.440;2023-04-24T07:05:51;5.22;;;3.05;;
19554;SDS011;9924;50.828;6.440;2023-04-24T07:08:37;5.30;;;3.33;;
19554;SDS011;9924;50.828;6.440;2023-04-24T07:11:22;4.93;;;2.75;;
19554;SDS011;9924;50.828;6.440;2023-04-24T07:14:08;7.25;;;2.72;;
19554;SDS011;9924;50.828;6.440;2023-04-24T07:16:52;4.43;;;2.03;;
19554;SDS011;9924;50.828;6.440;2023-04-24T07:19:41;3.20;;;2.03;;
19554;SDS011;9924;50.828;6.440;2023-04-24T07:22:28;4.78;;;2.10;;
19554;SDS011;9924;50.828;6.440;2023-04-24T07:25:13;5.65;;;2.10;;
19554;SDS011;9924;50.828;6.440;2023-04-24T07:27:58;4.55;;;2.15;;
19554;SDS011;9924;50.828;6.440;2023-04-24T07:30:43;3.17;;;2.25;;
19554;SDS011;9924;50.828;6.440;2023-04-24T07:33:27;3.08;;;2.25;;
19554;SDS011;9924;50.828;6.440;2023-04-24T07:36:15;5.03;;;2.58;;
19554;SDS011;9924;50.828;6.440;2023-04-24T07:39:02;4.63;;;2.88;;
19554;SDS011;9924;50.828;6.440;2023-04-24T07:41:47;4.95;;;3.00;;
19554;SDS011;9924;50.828;6.440;2023-04-24T07:44:36;4.63;;;2.97;;
19554;SDS011;9924;50.828;6.440;2023-04-24T07:47:22;5.07;;;3.20;;
19554;SDS011;9924;50.828;6.440;2023-04-24T07:50:07;5.40;;;3.83;;
19554;SDS011;9924;50.828;6.440;2023-04-24T07:52:52;4.95;;;2.90;;
19554;SDS011;9924;50.828;6.440;2023-04-24T07:55:37;4.63;;;2.58;;
19554;SDS011;9924;50.828;6.440;2023-04-24T07:58:22;4.05;;;2.50;;
19554;SDS011;9924;50.828;6.440;2023-04-24T08:01:06;3.92;;;2.60;;
19554;SDS011;9924;50.828;6.440;2023-04-24T08:03:51;4.35;;;2.90;;
19554;SDS011;9924;50.828;6.440;2023-04-24T08:06:36;7.90;;;3.60;;
19554;SDS011;9924;50.828;6.440;2023-04-24T08:09:20;6.88;;;3.38;;
19554;SDS011;9924;50.828;6.440;2023-04-24T08:12:06;7.30;;;4.40;;
19554;SDS011;9924;50.828;6.440;2023-04-24T08:14:51;6.35;;;3.78;;
19554;SDS011;9924;50.828;6.440;2023-04-24T08:17:36;8.43;;;3.80;;
19554;SDS011;9924;50.828;6.440;2023-04-24T08:20:21;7.28;;;4.57;;
19554;SDS011;9924;50.828;6.440;2023-04-24T08:23:05;8.68;;;4.82;;
19554;SDS011;9924;50.828;6.440;2023-04-24T08:25:50;8.60;;;5.05;;
19554;SDS011;9924;50.828;6.440;2023-04-24T08:28:41;10.20;;;5.38;;
19554;SDS011;9924;50.828;6.440;2023-04-24T08:31:32;8.68;;;5.18;;
19554;SDS011;9924;50.828;6.440;2023-04-24T08:34:16;8.95;;;5.43;;
19554;SDS011;9924;50.828;6.440;2023-04-24T08:37:02;10.32;;;5.45;;
19554;SDS011;9924;50.828;6.440;2023-04-24T08:39:56;9.82;;;5.20;;
19554;SDS011;9924;50.828;6.440;2023-04-24T08:42:44;8.85;;;5.35;;
19554;SDS011;9924;50.828;6.440;2023-04-24T08:45:28;7.07;;;4.38;;
19554;SDS011;9924;50.828;6.440;2023-04-24T08:48:13;6.70;;;4.32;;
19554;SDS011;9924;50.828;6.440;2023-04-24T08:50:59;8.13;;;5.32;;
19554;SDS011;9924;50.828;6.440;2023-04-24T08:53:45;6.22;;;4.55;;
19554;SDS011;9924;50.828;6.440;2023-04-24T08:56:31;9.82;;;4.68;;
19554;SDS011;9924;50.828;6.440;2023-04-24T08:59:21;7.22;;;4.43;;
19554;SDS011;9924;50.828;6.440;2023-04-24T09:02:14;8.32;;;4.65;;
19554;SDS011;9924;50.828;6.440;2023-04-24T09:04:59;6.07;;;4.45;;
19554;SDS011;9924;50.828;6.440;2023-04-24T09:07:53;9.05;;;4.80;;
19554;SDS011;9924;50.828;6.440;2023-04-24T09:10:39;8.98;;;4.90;;
19554;SDS011;9924;50.828;6.440;2023-04-24T09:13:26;10.02;;;4.88;;
19554;SDS011;9924;50.828;6.440;2023-04-24T09:16:11;8.65;;;5.60;;
19554;SDS011;9924;50.828;6.440;2023-04-24T09:18:57;7.55;;;5.35;;
19554;SDS011;9924;50.828;6.440;2023-04-24T09:21:41;10.88;;;5.18;;
19554;SDS011;9924;50.828;6.440;2023-04-24T09:24:29;11.52;;;4.80;;
19554;SDS011;9924;50.828;6.440;2023-04-24T09:27:14;8.48;;;4.13;;
19554;SDS011;9924;50.828;6.440;2023-04-24T09:30:02;10.13;;;4.85;;
19554;SDS011;9924;50.828;6.440;2023-04-24T09:32:48;9.05;;;4.53;;
19554;SDS011;9924;50.828;6.440;2023-04-24T09:35:33;10.98;;;4.88;;
19554;SDS011;9924;50.828;6.440;2023-04-24T09:38:22;7.40;;;4.95;;
19554;SDS011;9924;50.828;6.440;2023-04-24T09:41:18;7.45;;;4.10;;
19554;SDS011;9924;50.828;6.440;2023-04-24T09:44:16;7.53;;;4.03;;
19554;SDS011;9924;50.828;6.440;2023-04-24T09:47:11;8.02;;;4.22;;
19554;SDS011;9924;50.828;6.440;2023-04-24T09:50:08;8.80;;;3.72;;
19554;SDS011;9924;50.828;6.440;2023-04-24T09:53:02;9.98;;;4.00;;
19554;SDS011;9924;50.828;6.440;2023-04-24T09:55:48;7.18;;;3.65;;
19554;SDS011;9924;50.828;6.440;2023-04-24T09:58:34;9.52;;;4.30;;
19554;SDS011;9924;50.828;6.440;2023-04-24T10:01:32;7.70;;;4.00;;
19554;SDS011;9924;50.828;6.440;2023-04-24T10:04:20;8.90;;;3.90;;
19554;SDS011;9924;50.828;6.440;2023-04-24T10:07:09;9.65;;;4.47;;
19554;SDS011;9924;50.828;6.440;2023-04-24T10:09:54;10.55;;;5.20;;
19554;SDS011;9924;50.828;6.440;2023-04-24T10:12:43;11.50;;;6.18;;
19554;SDS011;9924;50.828;6.440;2023-04-24T10:15:28;13.07;;;6.25;;
19554;SDS011;9924;50.828;6.440;2023-04-24T10:18:15;12.18;;;6.80;;
19554;SDS011;9924;50.828;6.440;2023-04-24T10:21:00;10.85;;;7.18;;
19554;SDS011;9924;50.828;6.440;2023-04-24T10:23:46;11.45;;;7.53;;
19554;SDS011;9924;50.828;6.440;2023-04-24T10:26:31;18.90;;;7.70;;
19554;SDS011;9924;50.828;6.440;2023-04-24T10:29:18;16.15;;;7.65;;
19554;SDS011;9924;50.828;6.440;2023-04-24T10:32:06;17.92;;;7.63;;
19554;SDS011;9924;50.828;6.440;2023-04-24T10:34:51;11.45;;;6.80;;
19554;SDS011;9924;50.828;6.440;2023-04-24T10:37:45;11.55;;;5.72;;
19554;SDS011;9924;50.828;6.440;2023-04-24T10:40:35;11.23;;;5.70;;
19554;SDS011;9924;50.828;6.440;2023-04-24T10:43:23;13.13;;;4.88;;
19554;SDS011;9924;50.828;6.440;2023-04-24T10:46:11;14.15;;;4.70;;
19554;SDS011;9924;50.828;6.440;2023-04-24T10:49:03;9.25;;;4.45;;
19554;SDS011;9924;50.828;6.440;2023-04-24T10:51:53;8.43;;;4.03;;
19554;SDS011;9924;50.828;6.440;2023-04-24T10:54:46;13.93;;;4.63;;
19554;SDS011;9924;50.828;6.440;2023-04-24T10:57:32;10.27;;;4.75;;
19554;SDS011;9924;50.828;6.440;2023-04-24T11:03:23;13.18;;;4.60;;
19554;SDS011;9924;50.828;6.440;2023-04-24T11:06:09;13.23;;;5.85;;
19554;SDS011;9924;50.828;6.440;2023-04-24T11:08:59;15.32;;;4.65;;
19554;SDS011;9924;50.828;6.440;2023-04-24T11:12:06;12.55;;;5.03;;
19554;SDS011;9924;50.828;6.440;2023-04-24T11:18:03;13.38;;;5.10;;
19554;SDS011;9924;50.828;6.440;2023-04-24T11:20:47;11.15;;;5.15;;
19554;SDS011;9924;50.828;6.440;2023-04-24T11:23:35;11.98;;;5.90;;
19554;SDS011;9924;50.828;6.440;2023-04-24T11:26:26;17.63;;;6.28;;
19554;SDS011;9924;50.828;6.440;2023-04-24T11:29:17;13.82;;;6.28;;
19554;SDS011;9924;50.828;6.440;2023-04-24T11:38:04;13.90;;;5.57;;
19554;SDS011;9924;50.828;6.440;2023-04-24T11:40:49;17.60;;;7.05;;
19554;SDS011;9924;50.828;6.440;2023-04-24T11:43:33;12.77;;;6.60;;
19554;SDS011;9924;50.828;6.440;2023-04-24T11:46:20;11.88;;;5.93;;
19554;SDS011;9924;50.828;6.440;2023-04-24T11:49:05;13.65;;;6.00;;
19554;SDS011;9924;50.828;6.440;2023-04-24T11:51:50;10.30;;;5.35;;
19554;SDS011;9924;50.828;6.440;2023-04-24T11:54:46;12.02;;;5.60;;
19554;SDS011;9924;50.828;6.440;2023-04-24T11:57:32;14.20;;;5.07;;
19554;SDS011;9924;50.828;6.440;2023-04-24T12:00:29;10.93;;;4.60;;
19554;SDS011;9924;50.828;6.440;2023-04-24T12:03:15;10.60;;;4.47;;
19554;SDS011;9924;50.828;6.440;2023-04-24T12:06:06;11.07;;;4.80;;
19554;SDS011;9924;50.828;6.440;2023-04-24T12:08:52;11.43;;;5.53;;
19554;SDS011;9924;50.828;6.440;2023-04-24T12:11:38;14.52;;;4.93;;
19554;SDS011;9924;50.828;6.440;2023-04-24T12:14:47;9.20;;;4.82;;
19554;SDS011;9924;50.828;6.440;2023-04-24T12:17:40;11.07;;;4.80;;
19554;SDS011;9924;50.828;6.440;2023-04-24T12:20:27;11.77;;;4.95;;
19554;SDS011;9924;50.828;6.440;2023-04-24T12:23:15;12.52;;;4.47;;
19554;SDS011;9924;50.828;6.440;2023-04-24T12:26:26;10.70;;;4.45;;
19554;SDS011;9924;50.828;6.440;2023-04-24T12:29:11;10.70;;;4.43;;
19554;SDS011;9924;50.828;6.440;2023-04-24T12:32:03;8.63;;;4.40;;
19554;SDS011;9924;50.828;6.440;2023-04-24T12:34:49;10.60;;;5.10;;
19554;SDS011;9924;50.828;6.440;2023-04-24T12:37:35;12.60;;;4.80;;
19554;SDS011;9924;50.828;6.440;2023-04-24T12:40:21;9.65;;;4.68;;
19554;SDS011;9924;50.828;6.440;2023-04-24T12:46:00;10.05;;;4.53;;
19554;SDS011;9924;50.828;6.440;2023-04-24T12:48:45;11.63;;;5.00;;
19554;SDS011;9924;50.828;6.440;2023-04-24T12:51:29;10.23;;;5.22;;
19554;SDS011;9924;50.828;6.440;2023-04-24T12:54:14;10.32;;;5.63;;
19554;SDS011;9924;50.828;6.440;2023-04-24T12:56:58;12.85;;;5.82;;
19554;SDS011;9924;50.828;6.440;2023-04-24T12:59:42;11.00;;;5.93;;
19554;SDS011;9924;50.828;6.440;2023-04-24T13:02:28;11.52;;;5.30;;
19554;SDS011;9924;50.828;6.440;2023-04-24T13:05:14;12.02;;;4.90;;
19554;SDS011;9924;50.828;6.440;2023-04-24T13:07:59;11.93;;;5.28;;
19554;SDS011;9924;50.828;6.440;2023-04-24T13:10:44;11.65;;;4.95;;
19554;SDS011;9924;50.828;6.440;2023-04-24T13:13:29;9.48;;;5.32;;
19554;SDS011;9924;50.828;6.440;2023-04-24T13:16:15;15.30;;;5.57;;
19554;SDS011;9924;50.828;6.440;2023-04-24T13:18:59;10.23;;;5.40;;
19554;SDS011;9924;50.828;6.440;2023-04-24T13:21:44;13.10;;;5.47;;
19554;SDS011;9924;50.828;6.440;2023-04-24T13:24:29;9.05;;;4.55;;
19554;SDS011;9924;50.828;6.440;2023-04-24T13:27:14;9.35;;;4.85;;
19554;SDS011;9924;50.828;6.440;2023-04-24T13:30:00;9.88;;;4.80;;
19554;SDS011;9924;50.828;6.440;2023-04-24T13:32:45;7.60;;;4.15;;
19554;SDS011;9924;50.828;6.440;2023-04-24T13:35:29;10.30;;;4.57;;
19554;SDS011;9924;50.828;6.440;2023-04-24T13:38:14;6.95;;;4.28;;
19554;SDS011;9924;50.828;6.440;2023-04-24T13:40:58;6.90;;;3.83;;
19554;SDS011;9924;50.828;6.440;2023-04-24T13:43:47;9.10;;;4.30;;
19554;SDS011;9924;50.828;6.440;2023-04-24T13:46:32;6.93;;;4.07;;
19554;SDS011;9924;50.828;6.440;2023-04-24T13:49:17;7.90;;;3.92;;
19554;SDS011;9924;50.828;6.440;2023-04-24T13:52:02;6.80;;;3.95;;
19554;SDS011;9924;50.828;6.440;2023-04-24T13:54:47;12.50;;;4.43;;
19554;SDS011;9924;50.828;6.440;2023-04-24T13:57:32;10.85;;;4.43;;
19554;SDS011;9924;50.828;6.440;2023-04-24T14:00:25;11.55;;;3.92;;
19554;SDS011;9924;50.828;6.440;2023-04-24T14:03:11;7.00;;;3.30;;
19554;SDS011;9924;50.828;6.440;2023-04-24T14:05:55;6.22;;;3.25;;
19554;SDS011;9924;50.828;6.440;2023-04-24T14:08:39;8.98;;;4.00;;
19554;SDS011;9924;50.828;6.440;2023-04-24T14:11:25;5.43;;;3.30;;
19554;SDS011;9924;50.828;6.440;2023-04-24T14:14:10;7.13;;;3.97;;
19554;SDS011;9924;50.828;6.440;2023-04-24T14:16:55;7.20;;;4.00;;
19554;SDS011;9924;50.828;6.440;2023-04-24T14:19:39;5.88;;;3.53;;
19554;SDS011;9924;50.828;6.440;2023-04-24T14:22:30;7.00;;;3.67;;
19554;SDS011;9924;50.828;6.440;2023-04-24T14:25:18;8.73;;;3.50;;
19554;SDS011;9924;50.828;6.440;2023-04-24T14:28:02;7.40;;;3.40;;
19554;SDS011;9924;50.828;6.440;2023-04-24T14:30:47;9.27;;;3.70;;
19554;SDS011;9924;50.828;6.440;2023-04-24T14:33:31;6.15;;;3.40;;
19554;SDS011;9924;50.828;6.440;2023-04-24T14:36:16;6.95;;;3.53;;
19554;SDS011;9924;50.828;6.440;2023-04-24T14:39:01;6.50;;;3.15;;
19554;SDS011;9924;50.828;6.440;2023-04-24T14:41:51;9.18;;;3.80;;
19554;SDS011;9924;50.828;6.440;2023-04-24T14:44:36;8.30;;;3.75;;
19554;SDS011;9924;50.828;6.440;2023-04-24T14:47:20;7.97;;;3.78;;
19554;SDS011;9924;50.828;6.440;2023-04-24T14:50:05;6.97;;;3.85;;
19554;SDS011;9924;50.828;6.440;2023-04-24T14:52:50;6.50;;;3.60;;
19554;SDS011;9924;50.828;6.440;2023-04-24T14:55:35;5.78;;;3.72;;
19554;SDS011;9924;50.828;6.440;2023-04-24T14:58:19;7.80;;;3.78;;
19554;SDS011;9924;50.828;6.440;2023-04-24T15:01:04;5.82;;;3.38;;
19554;SDS011;9924;50.828;6.440;2023-04-24T15:03:48;8.45;;;3.63;;
19554;SDS011;9924;50.828;6.440;2023-04-24T15:06:33;4.13;;;2.70;;
19554;SDS011;9924;50.828;6.440;2023-04-24T15:09:20;8.70;;;3.17;;
19554;SDS011;9924;50.828;6.440;2023-04-24T15:12:05;4.85;;;2.80;;
19554;SDS011;9924;50.828;6.440;2023-04-24T15:14:49;8.88;;;3.25;;
19554;SDS011;9924;50.828;6.440;2023-04-24T15:17:34;7.95;;;3.10;;
19554;SDS011;9924;50.828;6.440;2023-04-24T15:20:19;4.78;;;2.75;;
19554;SDS011;9924;50.828;6.440;2023-04-24T15:23:04;7.68;;;3.20;;
19554;SDS011;9924;50.828;6.440;2023-04-24T15:25:49;8.52;;;3.80;;
19554;SDS011;9924;50.828;6.440;2023-04-24T15:28:34;5.85;;;2.70;;
19554;SDS011;9924;50.828;6.440;2023-04-24T15:31:21;8.48;;;3.42;;
19554;SDS011;9924;50.828;6.440;2023-04-24T15:34:08;7.50;;;3.78;;
19554;SDS011;9924;50.828;6.440;2023-04-24T15:36:56;4.68;;;3.30;;
19554;SDS011;9924;50.828;6.440;2023-04-24T15:39:40;11.20;;;3.92;;
19554;SDS011;9924;50.828;6.440;2023-04-24T15:42:28;6.13;;;3.35;;
19554;SDS011;9924;50.828;6.440;2023-04-24T15:45:13;6.18;;;3.10;;
19554;SDS011;9924;50.828;6.440;2023-04-24T15:47:57;8.13;;;3.58;;
19554;SDS011;9924;50.828;6.440;2023-04-24T15:50:42;11.05;;;3.47;;
19554;SDS011;9924;50.828;6.440;2023-04-24T15:53:27;8.95;;;3.75;;
19554;SDS011;9924;50.828;6.440;2023-04-24T15:56:13;7.72;;;3.60;;
19554;SDS011;9924;50.828;6.440;2023-04-24T15:58:58;6.53;;;4.00;;
19554;SDS011;9924;50.828;6.440;2023-04-24T16:01:46;6.75;;;3.38;;
19554;SDS011;9924;50.828;6.440;2023-04-24T16:04:31;5.28;;;3.50;;
19554;SDS011;9924;50.828;6.440;2023-04-24T16:07:17;10.10;;;3.45;;
19554;SDS011;9924;50.828;6.440;2023-04-24T16:10:02;5.18;;;3.40;;
19554;SDS011;9924;50.828;6.440;2023-04-24T16:12:48;7.72;;;4.00;;
19554;SDS011;9924;50.828;6.440;2023-04-24T16:15:34;6.22;;;4.05;;
19554;SDS011;9924;50.828;6.440;2023-04-24T16:18:18;5.45;;;3.67;;
19554;SDS011;9924;50.828;6.440;2023-04-24T16:21:03;5.32;;;3.63;;
19554;SDS011;9924;50.828;6.440;2023-04-24T16:23:48;7.78;;;3.78;;
19554;SDS011;9924;50.828;6.440;2023-04-24T16:26:32;6.90;;;3.75;;
19554;SDS011;9924;50.828;6.440;2023-04-24T16:29:37;8.05;;;3.45;;
19554;SDS011;9924;50.828;6.440;2023-04-24T16:32:21;4.78;;;3.20;;
19554;SDS011;9924;50.828;6.440;2023-04-24T16:35:28;4.70;;;3.25;;
19554;SDS011;9924;50.828;6.440;2023-04-24T16:38:12;8.27;;;3.92;;
19554;SDS011;9924;50.828;6.440;2023-04-24T16:41:04;7.45;;;3.60;;
19554;SDS011;9924;50.828;6.440;2023-04-24T16:43:53;6.63;;;3.60;;
19554;SDS011;9924;50.828;6.440;2023-04-24T16:46:38;6.65;;;3.80;;
19554;SDS011;9924;50.828;6.440;2023-04-24T16:49:22;7.65;;;3.80;;
19554;SDS011;9924;50.828;6.440;2023-04-24T16:52:06;8.80;;;3.40;;
19554;SDS011;9924;50.828;6.440;2023-04-24T16:54:52;7.22;;;3.58;;
19554;SDS011;9924;50.828;6.440;2023-04-24T16:57:37;6.75;;;3.67;;
19554;SDS011;9924;50.828;6.440;2023-04-24T17:00:22;7.25;;;3.78;;
19554;SDS011;9924;50.828;6.440;2023-04-24T17:03:06;6.60;;;3.75;;
19554;SDS011;9924;50.828;6.440;2023-04-24T17:05:52;7.20;;;3.65;;